GMXTD LFPB-EGLK
Flight info
| Callsign | GMXTD |
|---|---|
| Flight time | 1h 1m |
| Altitude | 28000 |
| Route | OPALE DCT ELDAX |
| Aircraft | B60T/L-SDFGRY/C |
Departure
| Time | 2026-05-06 18:01 |
|---|---|
| Airport | Paris-Le Bourget International Airport (LFPB) |
Arrival
| Time | 2026-05-06 19:03 |
|---|---|
| Airport | Blackbushe Airport (EGLK) |
| Time | Latitude | Longitude | Altitude | Speed | Heading |
|---|---|---|---|---|---|
| 2026-05-06 17:18 | 48.95218 | 2.43765 | 146 ft | 0 kts | 118° |
| 2026-05-06 17:51 | 48.95217 | 2.43766 | 146 ft | 2 kts | 119° |
| 2026-05-06 17:51 | 48.95263 | 2.43800 | 146 ft | 7 kts | 332° |
| 2026-05-06 17:52 | 48.95320 | 2.43770 | 147 ft | 19 kts | 25° |
| 2026-05-06 17:52 | 48.95416 | 2.43845 | 148 ft | 18 kts | 26° |
| 2026-05-06 17:52 | 48.95539 | 2.43948 | 149 ft | 19 kts | 25° |
| 2026-05-06 17:52 | 48.95601 | 2.43991 | 150 ft | 20 kts | 19° |
| 2026-05-06 17:53 | 48.95692 | 2.44056 | 150 ft | 12 kts | 24° |
| 2026-05-06 17:53 | 48.95839 | 2.44157 | 151 ft | 23 kts | 24° |
| 2026-05-06 17:53 | 48.95973 | 2.44252 | 156 ft | 25 kts | 26° |
| 2026-05-06 17:53 | 48.96123 | 2.44358 | 159 ft | 21 kts | 24° |
| 2026-05-06 17:54 | 48.96257 | 2.44445 | 166 ft | 24 kts | 20° |
| 2026-05-06 17:54 | 48.96366 | 2.44565 | 166 ft | 21 kts | 50° |
| 2026-05-06 17:54 | 48.96423 | 2.44671 | 170 ft | 14 kts | 50° |
| 2026-05-06 17:54 | 48.96478 | 2.44903 | 175 ft | 22 kts | 78° |
| 2026-05-06 17:55 | 48.96515 | 2.45071 | 179 ft | 12 kts | 41° |
| 2026-05-06 17:55 | 48.96614 | 2.45111 | 181 ft | 8 kts | 351° |
| 2026-05-06 17:55 | 48.96710 | 2.45073 | 184 ft | 28 kts | 349° |
| 2026-05-06 17:55 | 48.96830 | 2.45033 | 190 ft | 31 kts | 347° |
| 2026-05-06 17:56 | 48.96961 | 2.44993 | 193 ft | 11 kts | 358° |
| 2026-05-06 17:56 | 48.97016 | 2.45107 | 200 ft | 9 kts | 69° |
| 2026-05-06 17:56 | 48.97045 | 2.45208 | 203 ft | 16 kts | 68° |
| 2026-05-06 17:56 | 48.97070 | 2.45308 | 210 ft | 10 kts | 66° |
| 2026-05-06 17:57 | 48.97108 | 2.45446 | 209 ft | 10 kts | 68° |
| 2026-05-06 17:57 | 48.97158 | 2.45635 | 216 ft | 11 kts | 69° |
| 2026-05-06 17:57 | 48.97192 | 2.45759 | 217 ft | 14 kts | 71° |
| 2026-05-06 17:57 | 48.97242 | 2.45860 | 219 ft | 4 kts | 29° |
| 2026-05-06 17:58 | 48.97331 | 2.45880 | 222 ft | 14 kts | 338° |
| 2026-05-06 17:58 | 48.97376 | 2.45796 | 223 ft | 8 kts | 282° |
| 2026-05-06 17:58 | 48.97378 | 2.45734 | 221 ft | 6 kts | 256° |
| 2026-05-06 17:58 | 48.97365 | 2.45685 | 220 ft | 0 kts | 249° |
| 2026-05-06 18:01 | 48.97343 | 2.45592 | 217 ft | 44 kts | 251° |
| 2026-05-06 18:01 | 48.97106 | 2.44749 | 340 ft | 112 kts | 253° |
| 2026-05-06 18:01 | 48.96809 | 2.43583 | 884 ft | 127 kts | 256° |
| 2026-05-06 18:01 | 48.96468 | 2.42252 | 1521 ft | 143 kts | 255° |
| 2026-05-06 18:02 | 48.96156 | 2.40807 | 2242 ft | 144 kts | 257° |
| 2026-05-06 18:02 | 48.95795 | 2.39310 | 2834 ft | 156 kts | 251° |
| 2026-05-06 18:02 | 48.95268 | 2.37687 | 2978 ft | 185 kts | 247° |
| 2026-05-06 18:02 | 48.94666 | 2.35810 | 2994 ft | 210 kts | 249° |
| 2026-05-06 18:03 | 48.94043 | 2.33736 | 2999 ft | 215 kts | 249° |
| 2026-05-06 18:03 | 48.93634 | 2.31773 | 3007 ft | 181 kts | 271° |
| 2026-05-06 18:03 | 48.93876 | 2.29934 | 3009 ft | 177 kts | 300° |
| 2026-05-06 18:03 | 48.94562 | 2.28376 | 3017 ft | 181 kts | 309° |
| 2026-05-06 18:04 | 48.95321 | 2.26797 | 3014 ft | 185 kts | 309° |
| 2026-05-06 18:04 | 48.96073 | 2.25234 | 3008 ft | 182 kts | 309° |
| 2026-05-06 18:04 | 48.96809 | 2.23683 | 3087 ft | 177 kts | 308° |
| 2026-05-06 18:04 | 48.97533 | 2.22103 | 3538 ft | 186 kts | 307° |
| 2026-05-06 18:05 | 48.98280 | 2.20462 | 4018 ft | 191 kts | 307° |
| 2026-05-06 18:05 | 48.99145 | 2.18922 | 4517 ft | 192 kts | 322° |
| 2026-05-06 18:05 | 49.00373 | 2.18232 | 5052 ft | 190 kts | 359° |
| 2026-05-06 18:05 | 49.01685 | 2.18385 | 5674 ft | 189 kts | 6° |
| 2026-05-06 18:06 | 49.02997 | 2.18565 | 6277 ft | 190 kts | 3° |
| 2026-05-06 18:06 | 49.04336 | 2.18634 | 6744 ft | 195 kts | 0° |
| 2026-05-06 18:06 | 49.05710 | 2.18615 | 7228 ft | 200 kts | 358° |
| 2026-05-06 18:06 | 49.07116 | 2.18541 | 7737 ft | 204 kts | 357° |
| 2026-05-06 18:07 | 49.08539 | 2.18436 | 8248 ft | 205 kts | 356° |
| 2026-05-06 18:07 | 49.09977 | 2.18314 | 8778 ft | 208 kts | 356° |
| 2026-05-06 18:07 | 49.11427 | 2.18193 | 9324 ft | 209 kts | 355° |
| 2026-05-06 18:07 | 49.12883 | 2.18067 | 9875 ft | 210 kts | 355° |
| 2026-05-06 18:08 | 49.14341 | 2.17941 | 10378 ft | 210 kts | 355° |
| 2026-05-06 18:08 | 49.15800 | 2.17814 | 10894 ft | 210 kts | 355° |
| 2026-05-06 18:08 | 49.17257 | 2.17684 | 11414 ft | 210 kts | 356° |
| 2026-05-06 18:08 | 49.18713 | 2.17557 | 11934 ft | 209 kts | 356° |
| 2026-05-06 18:09 | 49.20167 | 2.17430 | 12467 ft | 209 kts | 356° |
| 2026-05-06 18:09 | 49.21617 | 2.17302 | 12990 ft | 209 kts | 356° |
| 2026-05-06 18:09 | 49.23065 | 2.17176 | 13521 ft | 208 kts | 356° |
| 2026-05-06 18:09 | 49.24510 | 2.17047 | 14012 ft | 208 kts | 356° |
| 2026-05-06 18:10 | 49.25953 | 2.16919 | 14485 ft | 208 kts | 356° |
| 2026-05-06 18:10 | 49.27399 | 2.16791 | 14959 ft | 208 kts | 356° |
| 2026-05-06 18:10 | 49.28847 | 2.16665 | 15440 ft | 209 kts | 355° |
| 2026-05-06 18:10 | 49.30304 | 2.16535 | 15922 ft | 210 kts | 355° |
| 2026-05-06 18:11 | 49.31764 | 2.16405 | 16406 ft | 210 kts | 355° |
| 2026-05-06 18:11 | 49.32731 | 2.16319 | 16737 ft | 211 kts | 355° |
| 2026-05-06 18:11 | 49.34697 | 2.16143 | 17393 ft | 212 kts | 354° |
| 2026-05-06 18:11 | 49.36171 | 2.16013 | 17886 ft | 212 kts | 354° |
| 2026-05-06 18:12 | 49.37650 | 2.15881 | 18361 ft | 213 kts | 354° |
| 2026-05-06 18:12 | 49.39136 | 2.15751 | 18792 ft | 214 kts | 354° |
| 2026-05-06 18:12 | 49.40625 | 2.15619 | 19227 ft | 215 kts | 354° |
| 2026-05-06 18:12 | 49.42115 | 2.15486 | 19670 ft | 215 kts | 355° |
| 2026-05-06 18:13 | 49.43593 | 2.15246 | 20104 ft | 214 kts | 347° |
| 2026-05-06 18:13 | 49.44991 | 2.14513 | 20543 ft | 212 kts | 335° |
| 2026-05-06 18:13 | 49.46367 | 2.13683 | 20991 ft | 213 kts | 339° |
| 2026-05-06 18:13 | 49.47763 | 2.12921 | 21429 ft | 213 kts | 339° |
| 2026-05-06 18:14 | 49.48688 | 2.12413 | 21727 ft | 213 kts | 339° |
| 2026-05-06 18:14 | 49.50082 | 2.11634 | 22175 ft | 213 kts | 339° |
| 2026-05-06 18:14 | 49.51474 | 2.10844 | 22617 ft | 213 kts | 339° |
| 2026-05-06 18:14 | 49.52866 | 2.10049 | 23075 ft | 213 kts | 339° |
| 2026-05-06 18:15 | 49.54257 | 2.09249 | 23522 ft | 214 kts | 339° |
| 2026-05-06 18:15 | 49.55647 | 2.08451 | 23900 ft | 214 kts | 339° |
| 2026-05-06 18:15 | 49.57039 | 2.07649 | 24280 ft | 214 kts | 339° |
| 2026-05-06 18:15 | 49.58432 | 2.06846 | 24653 ft | 214 kts | 339° |
| 2026-05-06 18:16 | 49.59828 | 2.06041 | 25035 ft | 214 kts | 339° |
| 2026-05-06 18:16 | 49.61218 | 2.05238 | 25408 ft | 214 kts | 339° |
| 2026-05-06 18:16 | 49.62611 | 2.04434 | 25785 ft | 214 kts | 339° |
| 2026-05-06 18:16 | 49.64004 | 2.03627 | 26165 ft | 214 kts | 339° |
| 2026-05-06 18:17 | 49.65378 | 2.02833 | 26539 ft | 214 kts | 339° |
| 2026-05-06 18:17 | 49.66769 | 2.02028 | 26921 ft | 213 kts | 339° |
| 2026-05-06 18:17 | 49.68156 | 2.01223 | 27298 ft | 213 kts | 339° |
| 2026-05-06 18:17 | 49.69546 | 2.00418 | 27678 ft | 213 kts | 339° |
| 2026-05-06 18:18 | 49.70946 | 1.99604 | 27893 ft | 221 kts | 340° |
| 2026-05-06 18:18 | 49.72427 | 1.98749 | 27916 ft | 234 kts | 340° |
| 2026-05-06 18:18 | 49.73999 | 1.97840 | 27930 ft | 248 kts | 340° |
| 2026-05-06 18:18 | 49.75649 | 1.96888 | 27934 ft | 258 kts | 340° |
| 2026-05-06 18:19 | 49.77358 | 1.95902 | 27935 ft | 265 kts | 339° |
| 2026-05-06 18:19 | 49.79103 | 1.94891 | 27934 ft | 271 kts | 339° |
| 2026-05-06 18:19 | 49.80876 | 1.93863 | 27934 ft | 274 kts | 339° |
| 2026-05-06 18:19 | 49.82671 | 1.92820 | 27936 ft | 277 kts | 339° |
| 2026-05-06 18:20 | 49.84484 | 1.91764 | 27935 ft | 279 kts | 339° |
| 2026-05-06 18:20 | 49.86300 | 1.90706 | 27933 ft | 280 kts | 339° |
| 2026-05-06 18:20 | 49.88127 | 1.89636 | 27937 ft | 281 kts | 338° |
| 2026-05-06 18:20 | 49.89834 | 1.88178 | 27937 ft | 281 kts | 323° |
| 2026-05-06 18:21 | 49.91205 | 1.86026 | 27939 ft | 281 kts | 305° |
| 2026-05-06 18:21 | 49.92138 | 1.83362 | 27940 ft | 282 kts | 293° |
| 2026-05-06 18:21 | 49.92865 | 1.80545 | 27941 ft | 282 kts | 292° |
| 2026-05-06 18:21 | 49.93749 | 1.77835 | 27942 ft | 282 kts | 304° |
| 2026-05-06 18:22 | 49.95042 | 1.75550 | 27944 ft | 282 kts | 317° |
| 2026-05-06 18:22 | 49.96525 | 1.73550 | 27943 ft | 282 kts | 318° |
| 2026-05-06 18:22 | 49.97956 | 1.71462 | 27943 ft | 282 kts | 314° |
| 2026-05-06 18:22 | 49.99280 | 1.69210 | 27942 ft | 282 kts | 310° |
| 2026-05-06 18:23 | 50.00535 | 1.66866 | 27944 ft | 282 kts | 308° |
| 2026-05-06 18:23 | 50.01753 | 1.64479 | 27945 ft | 282 kts | 307° |
| 2026-05-06 18:23 | 50.02955 | 1.62067 | 27944 ft | 282 kts | 307° |
| 2026-05-06 18:23 | 50.04146 | 1.59643 | 27946 ft | 282 kts | 306° |
| 2026-05-06 18:24 | 50.05331 | 1.57213 | 27945 ft | 282 kts | 306° |
| 2026-05-06 18:24 | 50.06513 | 1.54781 | 27948 ft | 282 kts | 306° |
| 2026-05-06 18:24 | 50.07691 | 1.52350 | 27951 ft | 282 kts | 306° |
| 2026-05-06 18:24 | 50.08869 | 1.49916 | 27948 ft | 281 kts | 306° |
| 2026-05-06 18:25 | 50.10047 | 1.47478 | 27947 ft | 281 kts | 306° |
| 2026-05-06 18:25 | 50.11223 | 1.45045 | 27950 ft | 281 kts | 306° |
| 2026-05-06 18:25 | 50.12401 | 1.42608 | 27950 ft | 281 kts | 306° |
| 2026-05-06 18:25 | 50.13579 | 1.40164 | 27950 ft | 281 kts | 306° |
| 2026-05-06 18:26 | 50.14751 | 1.37732 | 27952 ft | 281 kts | 306° |
| 2026-05-06 18:26 | 50.15926 | 1.35292 | 27949 ft | 281 kts | 306° |
| 2026-05-06 18:26 | 50.17100 | 1.32850 | 27950 ft | 281 kts | 306° |
| 2026-05-06 18:26 | 50.18275 | 1.30407 | 27952 ft | 281 kts | 306° |
| 2026-05-06 18:27 | 50.19448 | 1.27964 | 27952 ft | 281 kts | 306° |
| 2026-05-06 18:27 | 50.20611 | 1.25539 | 27679 ft | 287 kts | 306° |
| 2026-05-06 18:27 | 50.21821 | 1.23020 | 27363 ft | 290 kts | 306° |
| 2026-05-06 18:27 | 50.23021 | 1.20559 | 27041 ft | 280 kts | 306° |
| 2026-05-06 18:28 | 50.24190 | 1.18163 | 26622 ft | 278 kts | 306° |
| 2026-05-06 18:28 | 50.25356 | 1.15738 | 26242 ft | 279 kts | 306° |
| 2026-05-06 18:28 | 50.26508 | 1.13330 | 25805 ft | 274 kts | 306° |
| 2026-05-06 18:28 | 50.27640 | 1.10957 | 25379 ft | 271 kts | 305° |
| 2026-05-06 18:29 | 50.28761 | 1.08605 | 24961 ft | 269 kts | 305° |
| 2026-05-06 18:29 | 50.29868 | 1.06280 | 24548 ft | 264 kts | 305° |
| 2026-05-06 18:29 | 50.30957 | 1.03991 | 24144 ft | 260 kts | 305° |
| 2026-05-06 18:29 | 50.32015 | 1.01763 | 23756 ft | 258 kts | 305° |
| 2026-05-06 18:30 | 50.33081 | 0.99516 | 23335 ft | 256 kts | 305° |
| 2026-05-06 18:30 | 50.34140 | 0.97284 | 22871 ft | 255 kts | 305° |
| 2026-05-06 18:30 | 50.35193 | 0.95063 | 22422 ft | 253 kts | 305° |
| 2026-05-06 18:30 | 50.36240 | 0.92852 | 22044 ft | 250 kts | 305° |
| 2026-05-06 18:31 | 50.37270 | 0.90657 | 22000 ft | 254 kts | 305° |
| 2026-05-06 18:31 | 50.38322 | 0.88394 | 21981 ft | 259 kts | 305° |
| 2026-05-06 18:31 | 50.39393 | 0.86100 | 21978 ft | 262 kts | 305° |
| 2026-05-06 18:31 | 50.40476 | 0.83795 | 21970 ft | 262 kts | 306° |
| 2026-05-06 18:32 | 50.41555 | 0.81520 | 21971 ft | 258 kts | 306° |
| 2026-05-06 18:32 | 50.42618 | 0.79276 | 21966 ft | 256 kts | 305° |
| 2026-05-06 18:32 | 50.43673 | 0.77040 | 21963 ft | 254 kts | 305° |
| 2026-05-06 18:32 | 50.44722 | 0.74812 | 21963 ft | 253 kts | 305° |
| 2026-05-06 18:33 | 50.45768 | 0.72586 | 21970 ft | 253 kts | 305° |
| 2026-05-06 18:33 | 50.46809 | 0.70366 | 21966 ft | 252 kts | 305° |
| 2026-05-06 18:33 | 50.47847 | 0.68149 | 21970 ft | 252 kts | 305° |
| 2026-05-06 18:33 | 50.48832 | 0.65886 | 21968 ft | 251 kts | 297° |
| 2026-05-06 18:34 | 50.49072 | 0.65047 | 21970 ft | 250 kts | 289° |
| 2026-05-06 18:34 | 50.49288 | 0.63598 | 21970 ft | 249 kts | 278° |
| 2026-05-06 18:34 | 50.49488 | 0.60902 | 21967 ft | 249 kts | 276° |
| 2026-05-06 18:34 | 50.49683 | 0.58201 | 21968 ft | 249 kts | 277° |
| 2026-05-06 18:35 | 50.49899 | 0.55502 | 21970 ft | 249 kts | 277° |
| 2026-05-06 18:35 | 50.50133 | 0.52804 | 21965 ft | 249 kts | 278° |
| 2026-05-06 18:35 | 50.50375 | 0.50115 | 21967 ft | 249 kts | 278° |
| 2026-05-06 18:35 | 50.50623 | 0.47426 | 21969 ft | 249 kts | 278° |
| 2026-05-06 18:36 | 50.50872 | 0.44738 | 21966 ft | 249 kts | 278° |
| 2026-05-06 18:36 | 50.51123 | 0.42052 | 21967 ft | 248 kts | 278° |
| 2026-05-06 18:36 | 50.51373 | 0.39367 | 21971 ft | 248 kts | 278° |
| 2026-05-06 18:36 | 50.51622 | 0.36685 | 21970 ft | 248 kts | 278° |
| 2026-05-06 18:37 | 50.51870 | 0.34001 | 21859 ft | 250 kts | 278° |
| 2026-05-06 18:37 | 50.52131 | 0.31303 | 21551 ft | 250 kts | 278° |
| 2026-05-06 18:37 | 50.52390 | 0.28603 | 21263 ft | 250 kts | 278° |
| 2026-05-06 18:37 | 50.52645 | 0.25900 | 20971 ft | 250 kts | 278° |
| 2026-05-06 18:38 | 50.52895 | 0.23220 | 20631 ft | 246 kts | 278° |
| 2026-05-06 18:38 | 50.53139 | 0.20570 | 20298 ft | 244 kts | 278° |
| 2026-05-06 18:38 | 50.53380 | 0.17950 | 19973 ft | 242 kts | 278° |
| 2026-05-06 18:38 | 50.53618 | 0.15338 | 19643 ft | 241 kts | 278° |
| 2026-05-06 18:39 | 50.53855 | 0.12734 | 19323 ft | 240 kts | 278° |
| 2026-05-06 18:39 | 50.54088 | 0.10176 | 19011 ft | 239 kts | 278° |
| 2026-05-06 18:39 | 50.54321 | 0.07592 | 18705 ft | 238 kts | 278° |
| 2026-05-06 18:40 | 50.54787 | 0.02447 | 18074 ft | 237 kts | 278° |
| 2026-05-06 18:40 | 50.55016 | -0.00110 | 17730 ft | 236 kts | 278° |
| 2026-05-06 18:40 | 50.55244 | -0.02647 | 17455 ft | 231 kts | 278° |
| 2026-05-06 18:40 | 50.55468 | -0.05107 | 17171 ft | 225 kts | 278° |
| 2026-05-06 18:41 | 50.55684 | -0.07524 | 16881 ft | 222 kts | 278° |
| 2026-05-06 18:41 | 50.55898 | -0.09924 | 16604 ft | 221 kts | 278° |
| 2026-05-06 18:41 | 50.56109 | -0.12310 | 16325 ft | 220 kts | 278° |
| 2026-05-06 18:41 | 50.56320 | -0.14690 | 16052 ft | 219 kts | 278° |
| 2026-05-06 18:42 | 50.56530 | -0.17063 | 15785 ft | 219 kts | 278° |
| 2026-05-06 18:42 | 50.56739 | -0.19435 | 15521 ft | 219 kts | 278° |
| 2026-05-06 18:42 | 50.56948 | -0.21803 | 15260 ft | 218 kts | 279° |
| 2026-05-06 18:42 | 50.57155 | -0.24168 | 15005 ft | 218 kts | 279° |
| 2026-05-06 18:43 | 50.57363 | -0.26534 | 14753 ft | 218 kts | 279° |
| 2026-05-06 18:43 | 50.57568 | -0.28887 | 14504 ft | 217 kts | 279° |
| 2026-05-06 18:43 | 50.57774 | -0.31241 | 14259 ft | 217 kts | 279° |
| 2026-05-06 18:43 | 50.58063 | -0.33562 | 14012 ft | 216 kts | 293° |
| 2026-05-06 18:44 | 50.59021 | -0.35332 | 13758 ft | 216 kts | 329° |
| 2026-05-06 18:44 | 50.60444 | -0.36062 | 13485 ft | 216 kts | 344° |
| 2026-05-06 18:44 | 50.61859 | -0.36845 | 13227 ft | 215 kts | 336° |
| 2026-05-06 18:44 | 50.63207 | -0.37860 | 12973 ft | 215 kts | 333° |
| 2026-05-06 18:45 | 50.64534 | -0.38933 | 12718 ft | 214 kts | 333° |
| 2026-05-06 18:45 | 50.65867 | -0.39989 | 12466 ft | 214 kts | 333° |
| 2026-05-06 18:45 | 50.67200 | -0.41025 | 12222 ft | 213 kts | 334° |
| 2026-05-06 18:45 | 50.68081 | -0.41699 | 12056 ft | 213 kts | 334° |
| 2026-05-06 18:46 | 50.69849 | -0.43036 | 11739 ft | 212 kts | 334° |
| 2026-05-06 18:46 | 50.71196 | -0.44050 | 11496 ft | 212 kts | 334° |
| 2026-05-06 18:46 | 50.72522 | -0.45044 | 11259 ft | 211 kts | 334° |
| 2026-05-06 18:46 | 50.73849 | -0.46040 | 11027 ft | 210 kts | 334° |
| 2026-05-06 18:47 | 50.75170 | -0.47029 | 10795 ft | 210 kts | 334° |
| 2026-05-06 18:47 | 50.76298 | -0.47877 | 10600 ft | 209 kts | 334° |
| 2026-05-06 18:47 | 50.77100 | -0.48478 | 10457 ft | 209 kts | 335° |
| 2026-05-06 18:47 | 50.77539 | -0.48807 | 10385 ft | 209 kts | 335° |
| 2026-05-06 18:48 | 50.78850 | -0.49787 | 10160 ft | 208 kts | 335° |
| 2026-05-06 18:48 | 50.80159 | -0.50768 | 9894 ft | 209 kts | 335° |
| 2026-05-06 18:48 | 50.81475 | -0.51754 | 9544 ft | 210 kts | 335° |
| 2026-05-06 18:48 | 50.82731 | -0.52696 | 9230 ft | 209 kts | 335° |
| 2026-05-06 18:49 | 50.84045 | -0.53683 | 8898 ft | 209 kts | 335° |
| 2026-05-06 18:49 | 50.85353 | -0.54673 | 8578 ft | 208 kts | 334° |
| 2026-05-06 18:49 | 50.86649 | -0.55683 | 8252 ft | 207 kts | 334° |
| 2026-05-06 18:49 | 50.87942 | -0.56686 | 7942 ft | 207 kts | 334° |
| 2026-05-06 18:50 | 50.89187 | -0.57647 | 7709 ft | 191 kts | 334° |
| 2026-05-06 18:50 | 50.90423 | -0.58606 | 7541 ft | 205 kts | 334° |
| 2026-05-06 18:50 | 50.91709 | -0.59589 | 7388 ft | 200 kts | 334° |
| 2026-05-06 18:50 | 50.92939 | -0.60510 | 7218 ft | 193 kts | 334° |
| 2026-05-06 18:51 | 50.94161 | -0.61434 | 7051 ft | 201 kts | 334° |
| 2026-05-06 18:51 | 50.95449 | -0.62425 | 6910 ft | 205 kts | 334° |
| 2026-05-06 18:51 | 50.96619 | -0.63249 | 6722 ft | 170 kts | 338° |
| 2026-05-06 18:51 | 50.97671 | -0.63952 | 6505 ft | 160 kts | 336° |
| 2026-05-06 18:52 | 50.98675 | -0.64673 | 6278 ft | 157 kts | 335° |
| 2026-05-06 18:52 | 50.99659 | -0.65411 | 6035 ft | 156 kts | 335° |
| 2026-05-06 18:52 | 51.00632 | -0.66153 | 5809 ft | 155 kts | 335° |
| 2026-05-06 18:52 | 51.01599 | -0.66890 | 5570 ft | 154 kts | 335° |
| 2026-05-06 18:53 | 51.02565 | -0.67624 | 5343 ft | 153 kts | 335° |
| 2026-05-06 18:53 | 51.03524 | -0.68356 | 5113 ft | 153 kts | 335° |
| 2026-05-06 18:53 | 51.04523 | -0.69151 | 5022 ft | 181 kts | 332° |
| 2026-05-06 18:53 | 51.05736 | -0.70192 | 5013 ft | 206 kts | 333° |
| 2026-05-06 18:54 | 51.06961 | -0.71123 | 4994 ft | 193 kts | 335° |
| 2026-05-06 18:54 | 51.08185 | -0.72080 | 4926 ft | 181 kts | 334° |
| 2026-05-06 18:54 | 51.09209 | -0.72833 | 4677 ft | 151 kts | 338° |
| 2026-05-06 18:54 | 51.10161 | -0.73496 | 4392 ft | 164 kts | 335° |
| 2026-05-06 18:55 | 51.11332 | -0.74431 | 4192 ft | 206 kts | 334° |
| 2026-05-06 18:55 | 51.12573 | -0.75416 | 4030 ft | 191 kts | 335° |
| 2026-05-06 18:55 | 51.13768 | -0.76156 | 4013 ft | 181 kts | 350° |
| 2026-05-06 18:55 | 51.15007 | -0.76070 | 4002 ft | 178 kts | 12° |
| 2026-05-06 18:56 | 51.16197 | -0.75541 | 3992 ft | 177 kts | 16° |
| 2026-05-06 18:56 | 51.17351 | -0.74878 | 3993 ft | 169 kts | 26° |
| 2026-05-06 18:56 | 51.18157 | -0.73846 | 3985 ft | 140 kts | 46° |
| 2026-05-06 18:56 | 51.18741 | -0.72644 | 3979 ft | 132 kts | 53° |
| 2026-05-06 18:57 | 51.19237 | -0.71448 | 3985 ft | 136 kts | 53° |
| 2026-05-06 18:57 | 51.19892 | -0.69941 | 4001 ft | 188 kts | 53° |
| 2026-05-06 18:57 | 51.20842 | -0.68385 | 4001 ft | 205 kts | 28° |
| 2026-05-06 18:57 | 51.22131 | -0.67943 | 3915 ft | 188 kts | 352° |
| 2026-05-06 18:58 | 51.23369 | -0.68683 | 3850 ft | 193 kts | 334° |
| 2026-05-06 18:58 | 51.24568 | -0.69703 | 3684 ft | 196 kts | 331° |
| 2026-05-06 18:58 | 51.25547 | -0.70901 | 3399 ft | 169 kts | 310° |
| 2026-05-06 18:58 | 51.26200 | -0.72546 | 3106 ft | 186 kts | 301° |
| 2026-05-06 18:59 | 51.26820 | -0.74368 | 2831 ft | 187 kts | 300° |
| 2026-05-06 18:59 | 51.27412 | -0.76155 | 2544 ft | 167 kts | 300° |
| 2026-05-06 18:59 | 51.28067 | -0.77746 | 2318 ft | 184 kts | 311° |
| 2026-05-06 18:59 | 51.28819 | -0.79139 | 2056 ft | 157 kts | 317° |
| 2026-05-06 19:00 | 51.29607 | -0.80451 | 2082 ft | 183 kts | 313° |
| 2026-05-06 19:00 | 51.30034 | -0.81529 | 2031 ft | 166 kts | 296° |
| 2026-05-06 19:00 | 51.30211 | -0.82753 | 1933 ft | 155 kts | 276° |
| 2026-05-06 19:01 | 51.29972 | -0.84906 | 1620 ft | 162 kts | 260° |
| 2026-05-06 19:01 | 51.29741 | -0.86594 | 1398 ft | 139 kts | 270° |
| 2026-05-06 19:01 | 51.30013 | -0.87922 | 1144 ft | 136 kts | 316° |
| 2026-05-06 19:01 | 51.30878 | -0.88464 | 1110 ft | 129 kts | 7° |
| 2026-05-06 19:02 | 51.31383 | -0.88097 | 925 ft | 121 kts | 40° |
| 2026-05-06 19:02 | 51.31893 | -0.87139 | 687 ft | 105 kts | 60° |
| 2026-05-06 19:02 | 51.32131 | -0.86050 | 476 ft | 109 kts | 70° |
| 2026-05-06 19:02 | 51.32357 | -0.84978 | 333 ft | 64 kts | 73° |
| 2026-05-06 19:03 | 51.32420 | -0.84678 | 335 ft | 30 kts | 73° |
| 2026-05-06 19:03 | 51.32471 | -0.84433 | 334 ft | 25 kts | 72° |
| 2026-05-06 19:03 | 51.32523 | -0.84176 | 334 ft | 23 kts | 71° |
| 2026-05-06 19:03 | 51.32566 | -0.83971 | 332 ft | 12 kts | 73° |
| 2026-05-06 19:04 | 51.32509 | -0.83906 | 335 ft | 15 kts | 180° |
| 2026-05-06 19:04 | 51.32421 | -0.83915 | 335 ft | 10 kts | 185° |
| 2026-05-06 19:04 | 51.32378 | -0.83966 | 335 ft | 8 kts | 251° |
| 2026-05-06 19:04 | 51.32337 | -0.84001 | 335 ft | 7 kts | 189° |
| 2026-05-06 19:05 | 51.32317 | -0.84050 | 335 ft | 8 kts | 262° |
| 2026-05-06 19:05 | 51.32310 | -0.84140 | 335 ft | 17 kts | 265° |
| 2026-05-06 19:05 | 51.32298 | -0.84294 | 335 ft | 6 kts | 261° |
| 2026-05-06 19:05 | 51.32309 | -0.84366 | 332 ft | 2 kts | 332° |
| 2026-05-06 19:06 | 51.32321 | -0.84375 | 335 ft | 0 kts | 296° |
| 2026-05-06 19:06 | 51.32321 | -0.84379 | 335 ft | 0 kts | 266° |